createdAt,value
2018-12-14T00:02:14.725Z,25.80
2018-12-14T00:04:43.696Z,27.32
2018-12-14T00:07:12.520Z,30.60
2018-12-14T00:09:41.236Z,28.98
2018-12-14T00:12:09.980Z,24.60
2018-12-14T00:14:38.784Z,30.15
2018-12-14T00:17:07.627Z,25.80
2018-12-14T00:19:36.431Z,23.22
2018-12-14T00:22:08.456Z,23.73
2018-12-14T00:24:37.182Z,24.75
2018-12-14T00:27:06.025Z,23.10
2018-12-14T00:29:34.748Z,24.67
2018-12-14T00:32:03.569Z,31.15
2018-12-14T00:34:32.275Z,23.92
2018-12-14T00:37:01.623Z,27.37
2018-12-14T00:39:30.308Z,28.20
2018-12-14T00:41:59.014Z,20.17
2018-12-14T00:44:27.725Z,21.87
2018-12-14T00:46:56.598Z,25.75
2018-12-14T00:49:25.384Z,23.75
2018-12-14T00:51:54.159Z,23.70
2018-12-14T00:54:22.905Z,22.35
2018-12-14T00:56:51.638Z,26.68
2018-12-14T00:59:20.360Z,22.00
2018-12-14T01:01:49.079Z,23.42
2018-12-14T01:04:17.816Z,28.10
2018-12-14T01:06:46.593Z,22.60
2018-12-14T01:09:15.420Z,32.65
2018-12-14T01:11:44.112Z,27.85
2018-12-14T01:14:13.168Z,25.37
2018-12-14T01:16:41.981Z,28.55
2018-12-14T01:19:10.886Z,22.77
2018-12-14T01:21:39.651Z,28.77
2018-12-14T01:24:08.408Z,24.70
2018-12-14T01:26:37.103Z,21.17
2018-12-14T01:29:05.819Z,20.40
2018-12-14T01:31:34.635Z,22.13
2018-12-14T01:34:03.623Z,17.10
2018-12-14T01:36:32.380Z,29.20
2018-12-14T01:39:01.243Z,19.75
2018-12-14T01:41:29.949Z,28.55
2018-12-14T01:43:58.655Z,21.57
2018-12-14T01:46:27.344Z,20.72
2018-12-14T01:48:56.083Z,26.53
2018-12-14T01:51:24.791Z,25.15
2018-12-14T01:53:53.511Z,27.13
2018-12-14T01:56:22.329Z,30.32
2018-12-14T01:58:51.173Z,25.02
2018-12-14T02:01:19.949Z,24.43
2018-12-14T02:03:48.757Z,19.12
2018-12-14T02:06:17.528Z,22.60
2018-12-14T02:08:46.371Z,23.10
2018-12-14T02:11:15.051Z,25.60
2018-12-14T02:13:43.808Z,20.90
2018-12-14T02:16:12.496Z,28.05
2018-12-14T02:18:41.221Z,29.55
2018-12-14T02:21:10.043Z,26.87
2018-12-14T02:23:39.104Z,24.87
2018-12-14T02:26:07.800Z,27.10
2018-12-14T02:28:36.893Z,27.48
2018-12-14T02:31:05.623Z,22.10
2018-12-14T02:33:34.423Z,27.02
2018-12-14T02:36:03.152Z,25.40
2018-12-14T02:38:31.930Z,23.30
2018-12-14T02:41:03.742Z,25.37
2018-12-14T02:43:32.592Z,22.00
2018-12-14T02:46:01.323Z,21.85
2018-12-14T02:48:30.020Z,22.27
2018-12-14T02:50:58.786Z,25.72
2018-12-14T02:53:27.457Z,22.67
2018-12-14T02:55:56.168Z,25.57
2018-12-14T02:58:24.974Z,26.40
2018-12-14T03:00:53.802Z,20.72
2018-12-14T03:03:22.722Z,28.00
2018-12-14T03:05:51.535Z,25.45
2018-12-14T03:08:20.226Z,20.85
2018-12-14T03:10:48.940Z,22.80
2018-12-14T03:13:17.752Z,25.02
2018-12-14T03:15:46.483Z,22.77
2018-12-14T03:18:15.209Z,20.50
2018-12-14T03:20:43.914Z,23.73
2018-12-14T03:23:12.607Z,22.10
2018-12-14T03:25:41.615Z,24.50
2018-12-14T03:28:10.628Z,25.75
2018-12-14T03:30:39.353Z,22.00
2018-12-14T03:33:08.237Z,28.42
2018-12-14T03:35:36.941Z,22.95
2018-12-14T03:38:05.620Z,20.68
2018-12-14T03:40:34.355Z,29.12
2018-12-14T03:43:03.052Z,22.77
2018-12-14T03:45:32.575Z,23.45
2018-12-14T03:48:01.248Z,23.75
2018-12-14T03:50:30.599Z,19.55
2018-12-14T03:52:59.345Z,24.05
2018-12-14T03:55:28.052Z,24.18
2018-12-14T03:57:57.243Z,26.93
2018-12-14T04:00:26.486Z,29.60
2018-12-14T04:02:55.551Z,25.32
2018-12-14T04:05:24.718Z,23.25
2018-12-14T04:07:53.393Z,25.20
2018-12-14T04:10:22.097Z,26.12
2018-12-14T04:12:50.884Z,22.25
2018-12-14T04:15:19.584Z,24.12
2018-12-14T04:17:48.247Z,19.60
2018-12-14T04:20:16.996Z,20.15
2018-12-14T04:22:45.674Z,24.37
2018-12-14T04:25:14.508Z,27.05
2018-12-14T04:27:43.198Z,22.65
2018-12-14T04:30:12.134Z,26.12
2018-12-14T04:32:40.899Z,18.95
2018-12-14T04:35:09.663Z,21.65
2018-12-14T04:37:38.475Z,16.00
2018-12-14T04:40:08.063Z,24.07
2018-12-14T04:42:37.186Z,22.05
2018-12-14T04:45:06.827Z,28.73
2018-12-14T04:47:35.572Z,24.32
2018-12-14T04:50:04.509Z,25.90
2018-12-14T04:52:33.248Z,19.65
2018-12-14T04:55:02.123Z,23.98
2018-12-14T04:57:30.823Z,18.57
2018-12-14T04:59:59.565Z,23.10
2018-12-14T05:02:28.398Z,26.45
2018-12-14T05:04:57.244Z,19.48
2018-12-14T05:07:26.072Z,20.12
2018-12-14T05:09:54.832Z,24.30
2018-12-14T05:12:23.560Z,21.40
2018-12-14T05:14:52.617Z,21.73
2018-12-14T05:17:21.410Z,24.72
2018-12-14T05:19:50.303Z,17.42
2018-12-14T05:22:19.037Z,22.80
2018-12-14T05:24:47.973Z,35.55
2018-12-14T05:27:16.718Z,25.17
2018-12-14T05:29:45.971Z,23.18
2018-12-14T05:32:14.660Z,25.25
2018-12-14T05:34:43.424Z,21.25
2018-12-14T05:37:12.103Z,21.45
2018-12-14T05:39:40.821Z,23.38
2018-12-14T05:42:09.667Z,22.65
2018-12-14T05:44:38.368Z,20.88
2018-12-14T05:47:07.355Z,21.52
2018-12-14T05:49:36.232Z,23.85
2018-12-14T05:52:04.939Z,23.73
2018-12-14T05:54:33.707Z,21.30
2018-12-14T05:57:02.888Z,25.80
2018-12-14T05:59:31.734Z,24.05
2018-12-14T06:02:00.448Z,23.12
2018-12-14T06:04:29.171Z,18.35
2018-12-14T06:06:57.928Z,18.98
2018-12-14T06:09:26.688Z,23.02
2018-12-14T06:11:55.491Z,26.17
2018-12-14T06:14:24.353Z,22.58
2018-12-14T06:16:53.112Z,20.60
2018-12-14T06:19:21.824Z,20.05
2018-12-14T06:21:50.580Z,28.35
2018-12-14T06:24:19.291Z,22.35
2018-12-14T06:26:48.068Z,20.25
2018-12-14T06:29:16.843Z,23.65
2018-12-14T06:31:45.624Z,22.98
2018-12-14T06:34:14.748Z,25.52
2018-12-14T06:36:43.608Z,22.42
2018-12-14T06:39:12.304Z,24.85
2018-12-14T06:41:41.736Z,22.87
2018-12-14T06:44:10.784Z,21.42
2018-12-14T06:46:39.481Z,23.27
2018-12-14T06:49:08.543Z,26.00
2018-12-14T06:51:37.603Z,23.05
2018-12-14T06:54:06.887Z,26.40
2018-12-14T06:56:35.831Z,23.83
2018-12-14T06:59:04.786Z,28.17
2018-12-14T07:01:33.476Z,23.25
2018-12-14T07:04:02.199Z,23.77
2018-12-14T07:06:31.059Z,22.22
2018-12-14T07:08:59.773Z,23.00
2018-12-14T07:11:28.507Z,32.88
2018-12-14T07:13:57.420Z,23.32
2018-12-14T07:16:26.383Z,26.60
2018-12-14T07:18:55.095Z,25.85
2018-12-14T07:21:23.987Z,26.35
2018-12-14T07:23:52.693Z,27.60
2018-12-14T07:26:21.459Z,24.00
2018-12-14T07:28:50.903Z,27.77
2018-12-14T07:31:19.593Z,23.85
2018-12-14T07:33:48.521Z,23.52
2018-12-14T07:36:17.378Z,33.02
2018-12-14T07:38:48.273Z,24.82
2018-12-14T07:41:17.244Z,22.40
2018-12-14T07:43:45.976Z,23.20
2018-12-14T07:46:14.723Z,22.10
2018-12-14T07:48:43.621Z,23.10
2018-12-14T07:51:12.408Z,25.92
2018-12-14T07:53:41.139Z,27.10
2018-12-14T07:56:09.931Z,29.90
2018-12-14T07:58:39.142Z,28.20
2018-12-14T08:01:07.847Z,28.00
2018-12-14T08:03:37.069Z,22.85
2018-12-14T08:06:05.761Z,24.35
2018-12-14T08:08:34.560Z,22.60
2018-12-14T08:11:03.427Z,23.15
2018-12-14T08:13:34.752Z,24.37
2018-12-14T08:16:02.970Z,25.60
2018-12-14T08:18:31.714Z,23.18
2018-12-14T08:21:00.413Z,24.07
2018-12-14T08:23:29.128Z,22.87
2018-12-14T08:25:57.896Z,25.12
2018-12-14T08:28:26.607Z,27.50
2018-12-14T08:30:55.296Z,26.20
2018-12-14T08:33:24.045Z,31.17
2018-12-14T08:35:52.872Z,26.48
2018-12-14T08:38:21.603Z,19.98
2018-12-14T08:40:50.287Z,25.75
2018-12-14T08:43:19.157Z,21.30
2018-12-14T08:45:47.877Z,24.92
2018-12-14T08:48:16.604Z,26.27
2018-12-14T08:50:45.447Z,27.45
2018-12-14T08:53:14.648Z,23.50
2018-12-14T08:55:43.351Z,24.75
2018-12-14T08:58:12.061Z,22.30
2018-12-14T09:00:40.773Z,22.77
2018-12-14T09:03:09.471Z,21.17
2018-12-14T09:05:38.240Z,24.10
2018-12-14T09:08:06.939Z,25.92
2018-12-14T09:10:35.703Z,23.73
2018-12-14T09:13:04.445Z,25.75
2018-12-14T09:15:33.416Z,24.47
2018-12-14T09:18:02.352Z,29.27
2018-12-14T09:20:31.302Z,24.00
2018-12-14T09:23:00.720Z,37.20
2018-12-14T09:25:29.500Z,28.50
2018-12-14T09:27:58.203Z,21.93
2018-12-14T09:30:26.996Z,20.97
2018-12-14T09:32:55.872Z,22.05
2018-12-14T09:35:24.683Z,22.05
2018-12-14T09:37:53.568Z,24.98
2018-12-14T09:40:22.400Z,21.02
2018-12-14T09:42:51.351Z,20.35
2018-12-14T09:45:20.107Z,22.02
2018-12-14T09:47:49.018Z,24.37
2018-12-14T09:50:18.111Z,27.05
2018-12-14T09:52:46.837Z,25.17
2018-12-14T09:55:15.519Z,28.10
2018-12-14T09:57:44.247Z,21.15
2018-12-14T10:00:13.095Z,26.17
2018-12-14T10:02:42.368Z,26.68
2018-12-14T10:05:11.275Z,23.92
2018-12-14T10:07:46.656Z,19.32
2018-12-14T10:10:11.715Z,20.43
2018-12-14T10:12:40.487Z,22.45
2018-12-14T10:15:09.466Z,22.10
2018-12-14T10:17:38.299Z,28.50
2018-12-14T10:20:08.876Z,26.55
2018-12-14T10:22:41.556Z,21.70
2018-12-14T10:25:09.075Z,26.85
2018-12-14T10:27:37.776Z,23.02
2018-12-14T10:30:07.670Z,22.10
2018-12-14T10:32:36.507Z,21.10
2018-12-14T10:35:06.341Z,27.75
2018-12-14T10:37:35.325Z,24.52
2018-12-14T10:40:04.731Z,26.35
2018-12-14T10:42:33.523Z,18.05
2018-12-14T10:45:02.277Z,22.55
2018-12-14T10:47:31.000Z,20.65
2018-12-14T10:49:59.748Z,21.17
2018-12-14T10:52:28.383Z,18.10
2018-12-14T10:54:57.166Z,23.50
2018-12-14T10:57:26.027Z,28.35
2018-12-14T10:59:54.773Z,23.95
2018-12-14T11:02:23.545Z,22.83
2018-12-14T11:04:52.157Z,22.47
2018-12-14T11:07:20.952Z,19.07
2018-12-14T11:09:49.722Z,29.13
2018-12-14T11:12:18.452Z,26.80
2018-12-14T11:14:47.157Z,19.42
2018-12-14T11:17:15.839Z,21.10
2018-12-14T11:19:44.515Z,26.37
2018-12-14T11:22:13.321Z,22.22
2018-12-14T11:24:42.049Z,25.77
2018-12-14T11:27:10.680Z,20.03
2018-12-14T11:29:39.460Z,19.57
2018-12-14T11:32:08.087Z,21.60
2018-12-14T11:34:36.880Z,25.02
2018-12-14T11:37:05.506Z,25.90
2018-12-14T11:39:34.207Z,30.52
2018-12-14T11:42:03.089Z,20.32
2018-12-14T11:44:31.797Z,17.90
2018-12-14T11:47:00.515Z,24.72
2018-12-14T11:49:29.322Z,26.53
2018-12-14T11:51:58.088Z,26.10
2018-12-14T11:54:27.068Z,23.47
2018-12-14T11:56:55.888Z,27.17
2018-12-14T11:59:24.711Z,23.15
2018-12-14T12:01:53.549Z,22.17
2018-12-14T12:04:22.280Z,23.12
2018-12-14T12:06:50.941Z,22.07
2018-12-14T12:09:19.617Z,18.75
2018-12-14T12:11:48.398Z,27.23
2018-12-14T12:14:17.180Z,23.40
2018-12-14T12:16:45.987Z,22.07
2018-12-14T12:19:14.707Z,20.08
2018-12-14T12:21:43.687Z,25.72
2018-12-14T12:24:12.361Z,20.93
2018-12-14T12:26:41.051Z,20.70
2018-12-14T12:29:09.689Z,21.13
2018-12-14T12:31:38.378Z,20.20
2018-12-14T12:34:07.153Z,23.33
2018-12-14T12:36:35.851Z,24.50
2018-12-14T12:39:06.680Z,23.32
2018-12-14T12:41:35.357Z,20.30
2018-12-14T12:44:04.108Z,23.20
2018-12-14T12:46:32.868Z,26.43
2018-12-14T12:49:01.546Z,20.97
2018-12-14T12:51:30.844Z,17.67
2018-12-14T12:54:00.396Z,25.27
2018-12-14T12:56:30.353Z,22.00
2018-12-14T12:58:59.961Z,26.43
2018-12-14T13:01:29.490Z,19.47
2018-12-14T13:03:59.319Z,25.43
2018-12-14T13:06:28.902Z,15.40
2018-12-14T13:08:58.441Z,18.70
2018-12-14T13:11:28.023Z,23.97
2018-12-14T13:13:57.498Z,18.63
2018-12-14T13:16:27.413Z,18.37
2018-12-14T13:18:57.113Z,21.40
2018-12-14T13:21:26.826Z,17.33
2018-12-14T13:23:56.535Z,19.20
2018-12-14T13:26:26.474Z,19.20
2018-12-14T13:29:06.951Z,31.53
2018-12-14T13:31:37.464Z,21.23
2018-12-14T13:34:07.319Z,21.87
2018-12-14T13:36:36.777Z,21.40
2018-12-14T13:39:10.573Z,24.53
2018-12-14T13:41:40.341Z,21.90
2018-12-14T13:44:09.901Z,22.50
2018-12-14T13:46:39.817Z,19.37
2018-12-14T13:49:09.394Z,26.20
2018-12-14T13:51:39.138Z,19.82
2018-12-14T13:54:08.646Z,19.30
2018-12-14T13:56:38.278Z,29.93
2018-12-14T13:59:07.712Z,22.15
2018-12-14T14:01:37.157Z,26.33
2018-12-14T14:04:05.752Z,19.27
2018-12-14T14:06:34.462Z,24.02
2018-12-14T14:09:03.495Z,21.63
2018-12-14T14:11:32.260Z,20.10
2018-12-14T14:14:00.973Z,21.05
2018-12-14T14:16:29.634Z,35.30
2018-12-14T14:18:58.351Z,26.07
2018-12-14T14:21:27.185Z,15.75
2018-12-14T14:23:55.927Z,17.00
2018-12-14T14:26:24.832Z,17.55
2018-12-14T14:28:53.764Z,18.48
2018-12-14T14:31:22.697Z,15.10
2018-12-14T14:33:51.424Z,14.75
2018-12-14T14:36:20.137Z,16.62
2018-12-14T14:38:48.856Z,16.20
2018-12-14T14:41:17.600Z,17.50
2018-12-14T14:43:46.491Z,10.50
2018-12-14T14:46:15.442Z,15.58
2018-12-14T14:48:44.272Z,13.28
2018-12-14T14:51:13.351Z,19.37
2018-12-14T14:53:42.221Z,17.07
2018-12-14T14:56:11.187Z,19.45
2018-12-14T14:58:39.861Z,21.00
2018-12-14T15:01:08.630Z,20.82
2018-12-14T15:03:37.483Z,17.60
2018-12-14T15:06:06.214Z,36.73
2018-12-14T15:08:34.962Z,19.45
2018-12-14T15:11:03.675Z,20.48
2018-12-14T15:13:32.480Z,17.52
2018-12-14T15:16:01.105Z,21.17
2018-12-14T15:18:30.224Z,17.50
2018-12-14T15:20:58.970Z,18.77
2018-12-14T15:23:27.716Z,20.97
2018-12-14T15:25:56.379Z,19.13
2018-12-14T15:28:25.079Z,18.45
2018-12-14T15:30:53.944Z,23.80
2018-12-14T15:33:22.764Z,19.52
2018-12-14T15:35:51.622Z,19.15
2018-12-14T15:38:20.323Z,18.42
2018-12-14T15:40:49.180Z,15.65
2018-12-14T15:43:17.875Z,15.13
2018-12-14T15:45:46.639Z,16.10
2018-12-14T15:48:15.535Z,19.50
2018-12-14T15:50:44.351Z,14.45
2018-12-14T15:53:13.060Z,15.00
2018-12-14T15:55:41.769Z,26.48
2018-12-14T15:58:10.480Z,21.35
2018-12-14T16:00:39.267Z,15.75
2018-12-14T16:03:08.009Z,20.45
2018-12-14T16:05:36.863Z,15.13
2018-12-14T16:08:05.650Z,20.08
2018-12-14T16:10:34.409Z,18.70
2018-12-14T16:13:03.228Z,19.95
2018-12-14T16:15:32.090Z,18.90
2018-12-14T16:18:00.872Z,16.65
2018-12-14T16:20:29.629Z,20.37
2018-12-14T16:22:58.411Z,20.37
2018-12-14T16:25:27.353Z,14.40
2018-12-14T16:27:56.286Z,16.97
2018-12-14T16:30:25.031Z,15.55
2018-12-14T16:32:53.984Z,20.20
2018-12-14T16:35:22.962Z,17.00
2018-12-14T16:37:52.264Z,17.82
2018-12-14T16:40:21.021Z,17.25
2018-12-14T16:42:49.911Z,15.38
2018-12-14T16:45:18.748Z,14.33
2018-12-14T16:47:47.596Z,18.17
2018-12-14T16:50:16.311Z,12.15
2018-12-14T16:52:45.196Z,15.30
2018-12-14T16:55:13.888Z,18.10
2018-12-14T16:57:42.595Z,13.48
2018-12-14T17:00:11.663Z,12.50
2018-12-14T17:02:40.313Z,12.13
2018-12-14T17:05:09.097Z,14.83
2018-12-14T17:07:37.868Z,21.27
2018-12-14T17:10:07.197Z,17.55
2018-12-14T17:12:35.836Z,11.03
2018-12-14T17:15:05.320Z,15.38
2018-12-14T17:17:34.366Z,13.75
2018-12-14T17:20:03.022Z,11.70
2018-12-14T17:22:31.656Z,10.80
2018-12-14T17:25:00.643Z,17.40
2018-12-14T17:27:29.595Z,11.43
2018-12-14T17:29:58.201Z,12.27
2018-12-14T17:32:26.951Z,15.23
2018-12-14T17:34:55.655Z,9.23
2018-12-14T17:37:24.359Z,9.90
2018-12-14T17:39:53.172Z,10.32
2018-12-14T17:42:21.986Z,13.38
2018-12-14T17:44:50.717Z,9.05
2018-12-14T17:47:19.455Z,21.65
2018-12-14T17:49:48.171Z,9.98
2018-12-14T17:52:16.879Z,11.50
2018-12-14T17:54:45.632Z,13.28
2018-12-14T17:57:14.417Z,10.70
2018-12-14T17:59:43.122Z,8.80
2018-12-14T18:02:11.931Z,11.88
2018-12-14T18:04:40.785Z,14.18
2018-12-14T18:07:09.889Z,12.25
2018-12-14T18:09:38.638Z,9.65
2018-12-14T18:12:07.480Z,8.95
2018-12-14T18:14:36.228Z,11.35
2018-12-14T18:17:05.038Z,12.25
2018-12-14T18:19:33.753Z,9.28
2018-12-14T18:22:02.565Z,17.95
2018-12-14T18:24:31.381Z,12.40
2018-12-14T18:27:00.193Z,11.85
2018-12-14T18:29:28.943Z,11.30
2018-12-14T18:31:57.819Z,13.62
2018-12-14T18:34:26.765Z,14.90
2018-12-14T18:36:55.581Z,18.15
2018-12-14T18:39:24.383Z,12.47
2018-12-14T18:41:53.193Z,14.87
2018-12-14T18:44:21.985Z,9.23
2018-12-14T18:46:50.753Z,10.28
2018-12-14T18:49:19.536Z,14.07
2018-12-14T18:51:48.316Z,11.40
2018-12-14T18:54:17.676Z,11.70
2018-12-14T18:56:46.413Z,9.90
2018-12-14T18:59:15.326Z,14.60
2018-12-14T19:01:44.052Z,10.23
2018-12-14T19:04:12.961Z,13.32
2018-12-14T19:06:41.733Z,10.15
2018-12-14T19:09:10.629Z,12.35
2018-12-14T19:11:39.343Z,12.93
2018-12-14T19:14:08.094Z,14.58
2018-12-14T19:16:36.929Z,12.05
2018-12-14T19:19:05.667Z,12.73
2018-12-14T19:21:34.449Z,10.85
2018-12-14T19:24:03.144Z,18.92
2018-12-14T19:26:31.943Z,11.28
2018-12-14T19:29:02.062Z,12.70
2018-12-14T19:31:31.104Z,13.85
2018-12-14T19:33:59.815Z,13.22
2018-12-14T19:36:28.661Z,12.35
2018-12-14T19:38:57.508Z,14.15
2018-12-14T19:41:26.330Z,13.62
2018-12-14T19:43:55.245Z,14.80
2018-12-14T19:46:24.171Z,9.65
2018-12-14T19:48:55.819Z,10.45
2018-12-14T19:51:24.667Z,14.93
2018-12-14T19:53:53.362Z,13.38
2018-12-14T19:56:22.216Z,9.68
2018-12-14T19:58:50.985Z,14.03
2018-12-14T20:01:19.827Z,15.23
2018-12-14T20:03:48.508Z,10.88
2018-12-14T20:06:17.243Z,15.43
2018-12-14T20:08:45.958Z,19.12
2018-12-14T20:11:14.755Z,15.18
2018-12-14T20:13:43.535Z,16.23
2018-12-14T20:16:12.944Z,19.65
2018-12-14T20:18:41.814Z,16.30
2018-12-14T20:21:10.519Z,15.53
2018-12-14T20:23:40.064Z,17.15
2018-12-14T20:26:08.935Z,17.90
2018-12-14T20:28:37.881Z,17.07
2018-12-14T20:31:06.948Z,14.13
2018-12-14T20:33:35.643Z,16.48
2018-12-14T20:36:04.717Z,22.15
2018-12-14T20:38:33.616Z,14.50
2018-12-14T20:41:02.514Z,13.62
2018-12-14T20:43:31.225Z,16.42
2018-12-14T20:46:00.067Z,17.67
2018-12-14T20:48:28.762Z,16.75
2018-12-14T20:50:57.499Z,17.73
2018-12-14T20:53:26.735Z,15.72
2018-12-14T20:55:55.561Z,11.57
2018-12-14T20:58:24.312Z,16.12
2018-12-14T21:00:53.059Z,16.12
2018-12-14T21:03:23.939Z,17.32
2018-12-14T21:05:52.753Z,16.42
2018-12-14T21:08:21.494Z,14.90
2018-12-14T21:10:50.295Z,16.45
2018-12-14T21:13:19.145Z,14.95
2018-12-14T21:15:47.931Z,12.35
2018-12-14T21:18:16.734Z,12.00
2018-12-14T21:20:45.715Z,15.00
2018-12-14T21:23:14.768Z,13.65
2018-12-14T21:25:43.633Z,16.20
2018-12-14T21:28:12.535Z,18.23
2018-12-14T21:30:41.223Z,12.00
2018-12-14T21:33:09.948Z,13.70
2018-12-14T21:35:38.752Z,13.22
2018-12-14T21:38:07.511Z,12.95
2018-12-14T21:40:36.347Z,13.25
2018-12-14T21:43:05.068Z,13.45
2018-12-14T21:45:33.889Z,11.95
2018-12-14T21:48:02.638Z,14.23
2018-12-14T21:50:31.500Z,16.27
2018-12-14T21:53:00.335Z,14.93
2018-12-14T21:55:29.275Z,15.13
2018-12-14T21:57:58.039Z,15.10
2018-12-14T22:00:26.827Z,13.45
2018-12-14T22:02:55.884Z,20.65
2018-12-14T22:05:24.711Z,15.18
2018-12-14T22:07:53.497Z,12.82
2018-12-14T22:10:22.264Z,15.32
2018-12-14T22:12:50.973Z,16.50
2018-12-14T22:15:19.730Z,14.15
2018-12-14T22:17:48.457Z,11.20
2018-12-14T22:20:17.225Z,13.88
2018-12-14T22:22:45.990Z,16.25
2018-12-14T22:25:14.720Z,13.15
2018-12-14T22:27:43.452Z,12.82
2018-12-14T22:30:12.383Z,21.60
2018-12-14T22:32:41.496Z,15.15
2018-12-14T22:35:10.271Z,17.20
2018-12-14T22:37:39.099Z,17.80
2018-12-14T22:40:08.655Z,16.65
2018-12-14T22:42:37.404Z,14.95
2018-12-14T22:45:07.035Z,19.32
2018-12-14T22:47:35.740Z,15.03
2018-12-14T22:50:05.196Z,15.72
2018-12-14T22:52:34.024Z,19.60
2018-12-14T22:55:02.880Z,14.47
2018-12-14T22:57:31.607Z,25.25
2018-12-14T23:00:00.361Z,16.62
2018-12-14T23:02:29.176Z,17.35
2018-12-14T23:04:57.931Z,16.02
2018-12-14T23:07:26.755Z,17.82
2018-12-14T23:09:55.527Z,15.55
2018-12-14T23:12:24.163Z,18.33
2018-12-14T23:14:53.115Z,15.58
2018-12-14T23:17:21.899Z,28.00
2018-12-14T23:19:50.710Z,52.40
2018-12-14T23:22:19.548Z,127.80
2018-12-14T23:24:48.287Z,34.38
2018-12-14T23:27:17.003Z,54.98
2018-12-14T23:29:45.736Z,63.00
2018-12-14T23:32:14.471Z,119.57
2018-12-14T23:34:43.112Z,68.33
2018-12-14T23:37:14.047Z,29.37
2018-12-14T23:39:42.675Z,22.80
2018-12-14T23:42:11.395Z,43.90
2018-12-14T23:44:40.264Z,21.48
2018-12-14T23:47:09.063Z,14.15
2018-12-14T23:49:38.016Z,16.00
2018-12-14T23:52:06.829Z,24.30
2018-12-14T23:54:35.592Z,15.38
2018-12-14T23:57:04.392Z,17.52
2018-12-14T23:59:33.083Z,34.93
